createdAt,value
2022-10-05T00:00:24.932Z,0
2022-10-05T01:00:27.451Z,0
2022-10-05T01:10:27.757Z,79
2022-10-05T01:40:29.172Z,0
2022-10-05T01:50:29.607Z,0
2022-10-05T02:00:30.547Z,0
2022-10-05T02:20:31.181Z,0
2022-10-05T02:30:31.639Z,0
2022-10-05T02:40:32.458Z,0
2022-10-05T02:50:33.427Z,0
2022-10-05T03:00:33.948Z,0
2022-10-05T03:10:34.652Z,0
2022-10-05T03:20:35.192Z,0
2022-10-05T03:30:35.856Z,0
2022-10-05T03:40:36.658Z,0
2022-10-05T03:50:37.543Z,0
2022-10-05T04:00:38.273Z,0
2022-10-05T04:10:38.877Z,0
2022-10-05T04:20:39.421Z,0
2022-10-05T04:30:39.790Z,0
2022-10-05T04:40:40.600Z,0
2022-10-05T05:10:42.455Z,0
2022-10-05T05:40:44.045Z,36
2022-10-05T05:50:44.098Z,100
2022-10-05T06:00:44.530Z,100
2022-10-05T06:20:45.707Z,0
2022-10-05T06:30:46.360Z,0
2022-10-05T06:40:47.368Z,0
2022-10-05T06:50:48.298Z,0
2022-10-05T07:00:49.334Z,0
2022-10-05T07:10:50.273Z,0
2022-10-05T07:20:50.921Z,0
2022-10-05T07:30:51.740Z,0
2022-10-05T07:40:52.220Z,2
2022-10-05T08:00:52.817Z,7
2022-10-05T08:10:53.318Z,0
2022-10-05T08:20:53.428Z,8
2022-10-05T08:30:54.041Z,12
2022-10-05T08:40:54.667Z,21
2022-10-05T08:50:54.729Z,27
2022-10-05T09:00:55.484Z,31
2022-10-05T09:10:56.246Z,37
2022-10-05T09:20:56.884Z,40
2022-10-05T09:30:57.043Z,43
2022-10-05T09:40:57.856Z,45
2022-10-05T09:50:58.572Z,53
2022-10-05T10:01:03.754Z,57
2022-10-05T10:10:59.597Z,59
2022-10-05T10:21:00.515Z,58
2022-10-05T10:31:00.874Z,62
2022-10-05T10:41:01.812Z,62
2022-10-05T10:51:01.886Z,66
2022-10-05T11:01:02.530Z,71
2022-10-05T11:11:02.624Z,74
2022-10-05T11:21:03.656Z,78
2022-10-05T11:31:04.558Z,82
2022-10-05T11:41:05.678Z,87
2022-10-05T11:51:05.671Z,93
2022-10-05T12:01:06.690Z,98
2022-10-05T12:11:07.338Z,100
2022-10-05T12:21:08.060Z,100
2022-10-05T12:31:09.114Z,100
2022-10-05T12:41:09.254Z,100
2022-10-05T12:51:09.740Z,100
2022-10-05T13:01:10.409Z,100
2022-10-05T13:21:11.292Z,100
2022-10-05T13:41:11.843Z,100
2022-10-05T13:51:12.714Z,100
2022-10-05T14:01:13.515Z,100
2022-10-05T14:21:15.839Z,100
2022-10-05T14:31:16.185Z,100
2022-10-05T14:41:17.009Z,100
2022-10-05T14:51:17.023Z,100
2022-10-05T14:51:38.942Z,100
2022-10-05T15:01:22.950Z,100
2022-10-05T15:11:23.137Z,100
2022-10-05T15:21:23.503Z,100
2022-10-05T15:31:24.407Z,100
2022-10-05T15:41:25.355Z,100
2022-10-05T16:01:26.704Z,100
2022-10-05T16:11:27.330Z,99
2022-10-05T16:21:27.694Z,94
2022-10-05T16:31:28.061Z,92
2022-10-05T16:41:28.115Z,89
2022-10-05T16:51:29.146Z,84
2022-10-05T17:01:29.470Z,84
2022-10-05T17:11:29.537Z,95
2022-10-05T17:21:29.735Z,98
2022-10-05T17:31:30.138Z,88
2022-10-05T17:41:30.462Z,75
2022-10-05T17:51:31.003Z,77
2022-10-05T18:01:31.212Z,79
2022-10-05T18:21:32.420Z,80
2022-10-05T18:31:32.845Z,82
2022-10-05T18:51:34.470Z,83
2022-10-05T19:01:34.827Z,81
2022-10-05T19:11:35.385Z,82
2022-10-05T19:21:35.568Z,85
2022-10-05T19:31:35.917Z,84
2022-10-05T19:41:36.504Z,85
2022-10-05T19:51:36.917Z,87
2022-10-05T20:01:37.023Z,87
2022-10-05T20:11:37.169Z,89
2022-10-05T20:21:37.363Z,88
2022-10-05T20:31:37.901Z,84
2022-10-05T20:41:38.211Z,86
2022-10-05T20:51:38.894Z,83
2022-10-05T21:01:38.959Z,82
2022-10-05T21:11:39.959Z,76
2022-10-05T21:21:40.816Z,75
2022-10-05T21:31:40.885Z,71
2022-10-05T21:41:41.593Z,68
2022-10-05T21:51:42.218Z,59
2022-10-05T22:01:42.293Z,0
2022-10-05T22:11:42.644Z,64
2022-10-05T22:21:43.107Z,56
2022-10-05T22:31:43.669Z,55
2022-10-05T22:41:44.413Z,74
2022-10-05T22:51:45.398Z,59
2022-10-05T23:01:45.603Z,0
2022-10-05T23:11:45.844Z,0
2022-10-05T23:21:46.313Z,10
2022-10-05T23:31:46.715Z,69
2022-10-05T23:41:47.244Z,80
2022-10-05T23:51:47.664Z,0
